createdAt,value
2023-05-05T00:00:12.169Z,11.70
2023-05-05T00:02:42.187Z,11.60
2023-05-05T00:05:11.356Z,11.60
2023-05-05T00:07:40.172Z,11.40
2023-05-05T00:10:11.684Z,11.40
2023-05-05T00:12:40.394Z,11.30
2023-05-05T00:15:10.372Z,11.10
2023-05-05T00:17:39.125Z,11.40
2023-05-05T00:20:10.405Z,11.40
2023-05-05T00:22:39.168Z,11.50
2023-05-05T00:25:10.898Z,11.50
2023-05-05T00:27:40.850Z,11.50
2023-05-05T00:30:10.739Z,11.50
2023-05-05T00:32:39.626Z,11.10
2023-05-05T00:35:09.696Z,11.20
2023-05-05T00:37:38.499Z,11.30
2023-05-05T00:40:11.148Z,11.30
2023-05-05T00:42:41.784Z,11.20
2023-05-05T00:45:12.305Z,11.10
2023-05-05T00:47:44.015Z,10.90
2023-05-05T00:50:19.440Z,10.70
2023-05-05T00:52:48.279Z,10.60
2023-05-05T00:55:18.979Z,10.80
2023-05-05T00:57:48.745Z,10.60
2023-05-05T01:00:18.050Z,10.40
2023-05-05T01:02:46.993Z,10.50
2023-05-05T01:05:17.959Z,10.80
2023-05-05T01:08:20.347Z,10.80
2023-05-05T01:11:02.151Z,10.90
2023-05-05T01:13:44.187Z,10.90
2023-05-05T01:16:20.900Z,10.80
2023-05-05T01:19:23.768Z,10.70
2023-05-05T01:22:01.486Z,10.80
2023-05-05T01:24:58.156Z,10.70
2023-05-05T01:27:51.256Z,10.70
2023-05-05T01:30:51.313Z,10.70
2023-05-05T01:33:28.811Z,10.60
2023-05-05T01:36:05.512Z,10.40
2023-05-05T01:38:41.879Z,10.50
2023-05-05T01:41:18.365Z,10.20
2023-05-05T01:43:51.833Z,10.30
2023-05-05T01:46:24.786Z,10.40
2023-05-05T01:48:58.378Z,10.40
2023-05-05T01:51:29.174Z,10.30
2023-05-05T01:54:02.774Z,10.30
2023-05-05T01:56:33.900Z,10.40
2023-05-05T01:59:06.763Z,10.30
2023-05-05T02:01:40.977Z,10.20
2023-05-05T02:04:14.542Z,10.20
2023-05-05T02:06:47.625Z,10.20
2023-05-05T02:09:18.311Z,10.30
2023-05-05T02:11:47.250Z,10.20
2023-05-05T02:14:20.067Z,10.30
2023-05-05T02:16:49.953Z,10.10
2023-05-05T02:19:25.610Z,10.20
2023-05-05T02:21:54.438Z,10.20
2023-05-05T02:24:23.278Z,10.20
2023-05-05T02:26:56.112Z,10.20
2023-05-05T02:29:34.002Z,10.00
2023-05-05T02:32:10.608Z,9.80
2023-05-05T02:34:44.054Z,9.70
2023-05-05T02:37:24.679Z,9.90
2023-05-05T02:40:04.704Z,9.90
2023-05-05T02:42:41.199Z,9.90
2023-05-05T02:45:18.543Z,9.80
2023-05-05T02:47:50.634Z,9.90
2023-05-05T02:50:20.865Z,9.80
2023-05-05T02:52:58.675Z,9.80
2023-05-05T02:55:34.678Z,9.80
2023-05-05T02:58:08.828Z,9.80
2023-05-05T03:00:54.649Z,9.80
2023-05-05T03:03:39.930Z,9.80
2023-05-05T03:06:19.643Z,9.80
2023-05-05T03:08:57.620Z,9.70
2023-05-05T03:11:37.051Z,9.80
2023-05-05T03:14:13.153Z,9.80
2023-05-05T03:16:45.850Z,9.70
2023-05-05T03:19:18.692Z,9.80
2023-05-05T03:21:52.524Z,9.70
2023-05-05T03:24:22.781Z,9.70
2023-05-05T03:26:59.893Z,9.70
2023-05-05T03:29:34.810Z,9.70
2023-05-05T03:32:06.018Z,9.70
2023-05-05T03:34:37.439Z,9.80
2023-05-05T03:37:08.779Z,9.80
2023-05-05T03:39:38.830Z,9.70
2023-05-05T03:42:08.894Z,9.60
2023-05-05T03:44:38.199Z,9.60
2023-05-05T03:47:07.769Z,9.60
2023-05-05T03:49:39.089Z,9.60
2023-05-05T03:52:09.686Z,9.60
2023-05-05T03:54:40.784Z,9.70
2023-05-05T03:57:09.503Z,9.60
2023-05-05T03:59:38.423Z,9.60
2023-05-05T04:02:07.680Z,9.50
2023-05-05T04:04:36.954Z,9.60
2023-05-05T04:07:06.450Z,9.40
2023-05-05T04:09:37.381Z,9.50
2023-05-05T04:12:07.699Z,9.50
2023-05-05T04:14:37.024Z,9.50
2023-05-05T04:17:08.262Z,9.50
2023-05-05T04:19:37.621Z,9.40
2023-05-05T04:22:07.673Z,9.40
2023-05-05T04:24:38.141Z,9.50
2023-05-05T04:27:07.406Z,9.40
2023-05-05T04:29:36.947Z,9.50
2023-05-05T04:32:06.730Z,9.20
2023-05-05T04:34:35.779Z,9.30
2023-05-05T04:37:04.821Z,9.20
2023-05-05T04:39:33.958Z,9.30
2023-05-05T04:42:05.013Z,9.30
2023-05-05T04:44:34.726Z,9.40
2023-05-05T04:47:04.587Z,9.40
2023-05-05T04:49:34.158Z,9.40
2023-05-05T04:52:03.551Z,9.40
2023-05-05T04:54:32.450Z,9.50
2023-05-05T04:57:41.917Z,9.50
2023-05-05T05:01:13.930Z,9.50
2023-05-05T05:03:42.776Z,9.50
2023-05-05T05:06:11.541Z,9.50
2023-05-05T05:08:40.287Z,9.50
2023-05-05T05:11:09.155Z,9.50
2023-05-05T05:13:37.864Z,9.60
2023-05-05T05:16:09.730Z,9.60
2023-05-05T05:18:38.488Z,9.60
2023-05-05T05:21:07.285Z,9.60
2023-05-05T05:23:36.199Z,9.60
2023-05-05T05:26:05.406Z,9.60
2023-05-05T05:28:34.896Z,9.60
2023-05-05T05:31:04.906Z,9.60
2023-05-05T05:33:35.624Z,9.50
2023-05-05T05:36:04.617Z,9.60
2023-05-05T05:38:33.420Z,9.60
2023-05-05T05:41:08.428Z,9.70
2023-05-05T05:43:39.276Z,9.60
2023-05-05T05:46:09.293Z,9.70
2023-05-05T05:48:41.547Z,9.80
2023-05-05T05:51:10.414Z,9.80
2023-05-05T05:53:40.070Z,9.80
2023-05-05T05:56:11.196Z,9.80
2023-05-05T05:58:40.643Z,9.80
2023-05-05T06:01:09.786Z,9.80
2023-05-05T06:03:38.652Z,9.80
2023-05-05T06:06:09.867Z,10.00
2023-05-05T06:08:38.870Z,10.00
2023-05-05T06:11:09.084Z,10.00
2023-05-05T06:13:37.943Z,10.20
2023-05-05T06:16:08.873Z,10.20
2023-05-05T06:18:39.111Z,10.20
2023-05-05T06:21:09.265Z,10.40
2023-05-05T06:23:38.089Z,10.40
2023-05-05T06:26:09.261Z,10.50
2023-05-05T06:28:37.969Z,10.50
2023-05-05T06:31:06.832Z,10.50
2023-05-05T06:33:35.562Z,10.60
2023-05-05T06:36:04.448Z,10.60
2023-05-05T06:38:34.509Z,10.70
2023-05-05T06:41:03.435Z,10.80
2023-05-05T06:43:32.348Z,10.90
2023-05-05T06:46:02.981Z,10.90
2023-05-05T06:48:31.684Z,11.00
2023-05-05T06:51:00.361Z,11.10
2023-05-05T06:53:29.060Z,11.20
2023-05-05T06:55:59.096Z,11.30
2023-05-05T06:58:27.797Z,11.30
2023-05-05T07:00:56.530Z,11.40
2023-05-05T07:03:25.336Z,11.50
2023-05-05T07:05:55.065Z,11.50
2023-05-05T07:08:23.803Z,11.50
2023-05-05T07:10:52.512Z,11.60
2023-05-05T07:13:22.626Z,11.70
2023-05-05T07:15:51.529Z,11.70
2023-05-05T07:18:20.601Z,11.80
2023-05-05T07:20:49.934Z,11.90
2023-05-05T07:23:18.611Z,12.00
2023-05-05T07:25:47.370Z,12.30
2023-05-05T07:28:16.451Z,12.30
2023-05-05T07:30:46.532Z,12.30
2023-05-05T07:33:15.927Z,12.30
2023-05-05T07:35:44.580Z,12.40
2023-05-05T07:38:13.362Z,12.40
2023-05-05T07:40:42.011Z,12.60
2023-05-05T07:43:10.773Z,12.80
2023-05-05T07:45:39.443Z,12.90
2023-05-05T07:48:09.636Z,13.00
2023-05-05T07:50:38.422Z,13.10
2023-05-05T07:53:14.405Z,13.10
2023-05-05T07:55:43.691Z,13.20
2023-05-05T07:58:12.380Z,13.30
2023-05-05T08:00:41.494Z,13.40
2023-05-05T08:03:12.289Z,13.40
2023-05-05T08:05:41.413Z,13.60
2023-05-05T08:08:10.275Z,13.80
2023-05-05T08:10:39.027Z,14.50
2023-05-05T08:13:07.782Z,14.60
2023-05-05T08:15:36.501Z,14.30
2023-05-05T08:18:05.385Z,14.50
2023-05-05T08:20:35.559Z,14.50
2023-05-05T08:23:04.377Z,14.40
2023-05-05T08:25:33.017Z,14.70
2023-05-05T08:28:01.772Z,14.80
2023-05-05T08:30:31.097Z,14.80
2023-05-05T08:33:00.655Z,15.00
2023-05-05T08:35:29.381Z,15.20
2023-05-05T08:37:59.475Z,15.30
2023-05-05T08:40:34.971Z,15.30
2023-05-05T08:43:04.451Z,15.30
2023-05-05T08:45:34.009Z,15.40
2023-05-05T08:48:05.494Z,15.60
2023-05-05T08:50:34.854Z,15.60
2023-05-05T08:53:16.930Z,15.60
2023-05-05T08:55:52.712Z,15.90
2023-05-05T08:58:24.087Z,16.00
2023-05-05T09:00:55.332Z,16.10
2023-05-05T09:03:25.280Z,16.20
2023-05-05T09:05:54.763Z,16.40
2023-05-05T09:08:26.024Z,16.40
2023-05-05T09:10:56.373Z,16.40
2023-05-05T09:13:25.260Z,16.40
2023-05-05T09:15:53.936Z,16.60
2023-05-05T09:18:22.641Z,16.80
2023-05-05T09:20:51.527Z,17.00
2023-05-05T09:23:21.992Z,17.00
2023-05-05T09:26:06.084Z,17.20
2023-05-05T09:28:35.877Z,17.40
2023-05-05T09:31:16.289Z,18.00
2023-05-05T09:33:45.760Z,18.20
2023-05-05T09:36:14.499Z,18.10
2023-05-05T09:38:43.214Z,18.20
2023-05-05T09:41:13.313Z,18.40
2023-05-05T09:43:53.033Z,18.50
2023-05-05T09:46:21.906Z,18.80
2023-05-05T09:48:50.599Z,18.90
2023-05-05T09:51:31.929Z,19.30
2023-05-05T09:54:00.758Z,19.40
2023-05-05T09:56:40.994Z,19.40
2023-05-05T09:59:10.482Z,19.70
2023-05-05T10:01:43.341Z,19.70
2023-05-05T10:04:25.968Z,20.00
2023-05-05T10:06:55.741Z,20.10
2023-05-05T10:09:24.778Z,20.10
2023-05-05T10:11:59.052Z,20.10
2023-05-05T10:14:29.002Z,20.20
2023-05-05T10:16:58.134Z,20.50
2023-05-05T10:19:29.055Z,20.60
2023-05-05T10:22:04.908Z,20.60
2023-05-05T10:24:41.042Z,20.80
2023-05-05T10:27:20.945Z,20.90
2023-05-05T10:29:56.218Z,21.10
2023-05-05T10:35:08.860Z,21.30
2023-05-05T10:37:39.637Z,21.30
2023-05-05T10:40:11.220Z,21.30
2023-05-05T10:42:42.000Z,21.30
2023-05-05T10:45:11.543Z,21.60
2023-05-05T10:47:41.567Z,21.70
2023-05-05T10:50:22.557Z,21.90
2023-05-05T10:53:09.259Z,21.90
2023-05-05T10:55:49.814Z,22.00
2023-05-05T11:01:12.315Z,22.00
2023-05-05T11:03:41.098Z,22.20
2023-05-05T11:06:14.013Z,22.40
2023-05-05T11:08:45.684Z,22.50
2023-05-05T11:11:14.901Z,22.60
2023-05-05T11:13:43.588Z,22.40
2023-05-05T11:16:47.898Z,22.40
2023-05-05T11:19:53.501Z,22.50
2023-05-05T11:22:22.214Z,22.70
2023-05-05T11:24:50.879Z,22.70
2023-05-05T11:27:19.611Z,22.80
2023-05-05T11:30:09.376Z,23.00
2023-05-05T11:32:39.893Z,23.10
2023-05-05T11:35:09.436Z,22.80
2023-05-05T11:37:39.657Z,23.00
2023-05-05T11:40:22.166Z,23.40
2023-05-05T11:42:51.148Z,23.50
2023-05-05T11:45:24.597Z,23.60
2023-05-05T11:48:27.150Z,23.60
2023-05-05T11:50:56.285Z,23.80
2023-05-05T11:53:25.150Z,23.90
2023-05-05T11:56:08.621Z,24.00
2023-05-05T11:58:37.429Z,24.20
2023-05-05T12:01:09.806Z,24.10
2023-05-05T12:03:40.736Z,23.90
2023-05-05T12:06:10.570Z,23.90
2023-05-05T12:08:40.387Z,24.10
2023-05-05T12:11:11.686Z,24.40
2023-05-05T12:13:41.715Z,24.50
2023-05-05T12:16:11.162Z,24.50
2023-05-05T12:18:42.891Z,24.70
2023-05-05T12:21:18.763Z,24.70
2023-05-05T12:23:48.106Z,25.00
2023-05-05T12:26:34.720Z,25.00
2023-05-05T12:29:03.728Z,24.90
2023-05-05T12:31:37.095Z,24.90
2023-05-05T12:34:09.226Z,24.70
2023-05-05T12:36:38.959Z,24.80
2023-05-05T12:39:07.686Z,24.90
2023-05-05T12:41:36.754Z,25.10
2023-05-05T12:44:05.730Z,25.20
2023-05-05T12:46:46.725Z,25.30
2023-05-05T12:49:17.791Z,25.30
2023-05-05T12:51:56.205Z,25.00
2023-05-05T12:54:29.553Z,24.70
2023-05-05T12:56:58.858Z,24.90
2023-05-05T12:59:31.834Z,24.90
2023-05-05T13:02:02.451Z,24.70
2023-05-05T13:04:32.762Z,24.70
2023-05-05T13:07:13.181Z,25.10
2023-05-05T13:09:42.461Z,24.90
2023-05-05T13:12:12.533Z,25.30
2023-05-05T13:14:41.921Z,25.40
2023-05-05T13:17:15.301Z,25.00
2023-05-05T13:19:47.161Z,24.80
2023-05-05T13:22:16.253Z,24.80
2023-05-05T13:24:52.431Z,24.60
2023-05-05T13:27:22.848Z,24.20
2023-05-05T13:29:52.114Z,24.60
2023-05-05T13:32:21.069Z,24.50
2023-05-05T13:34:51.641Z,24.40
2023-05-05T13:37:22.177Z,24.30
2023-05-05T13:39:52.027Z,23.90
2023-05-05T13:42:21.115Z,24.00
2023-05-05T13:44:53.764Z,24.10
2023-05-05T13:47:23.398Z,24.10
2023-05-05T13:49:54.841Z,24.10
2023-05-05T13:52:23.642Z,23.90
2023-05-05T13:54:52.886Z,24.00
2023-05-05T13:57:21.630Z,24.10
2023-05-05T13:59:50.698Z,24.30
2023-05-05T14:02:19.353Z,24.50
2023-05-05T14:04:48.008Z,24.20
2023-05-05T14:07:18.195Z,24.50
2023-05-05T14:09:47.028Z,24.70
2023-05-05T14:12:15.638Z,24.40
2023-05-05T14:14:44.378Z,24.70
2023-05-05T14:17:13.395Z,24.90
2023-05-05T14:19:43.370Z,24.60
2023-05-05T14:22:12.400Z,24.70
2023-05-05T14:24:42.580Z,24.60
2023-05-05T14:27:11.303Z,24.60
2023-05-05T14:29:40.213Z,24.70
2023-05-05T14:32:10.866Z,24.40
2023-05-05T14:34:39.807Z,24.30
2023-05-05T14:37:08.985Z,24.40
2023-05-05T14:39:37.698Z,24.20
2023-05-05T14:42:08.176Z,24.30
2023-05-05T14:44:38.925Z,24.20
2023-05-05T14:47:09.115Z,24.20
2023-05-05T14:49:38.213Z,24.10
2023-05-05T14:52:35.179Z,23.90
2023-05-05T14:55:04.444Z,23.80
2023-05-05T14:57:34.613Z,24.00
2023-05-05T15:00:04.893Z,23.90
2023-05-05T15:02:34.039Z,23.70
2023-05-05T15:05:02.971Z,23.80
2023-05-05T15:07:31.756Z,24.00
2023-05-05T15:10:00.520Z,24.20
2023-05-05T15:12:29.315Z,24.10
2023-05-05T15:14:59.385Z,24.10
2023-05-05T15:17:28.752Z,23.80
2023-05-05T15:19:57.535Z,23.40
2023-05-05T15:22:26.575Z,23.40
2023-05-05T15:24:55.501Z,23.50
2023-05-05T15:27:24.288Z,23.60
2023-05-05T15:29:53.130Z,23.70
2023-05-05T15:32:23.681Z,23.70
2023-05-05T15:34:52.536Z,23.50
2023-05-05T15:37:21.339Z,23.60
2023-05-05T15:39:50.238Z,23.70
2023-05-05T15:42:19.075Z,23.60
2023-05-05T15:44:47.845Z,23.50
2023-05-05T15:47:16.626Z,23.60
2023-05-05T15:49:47.330Z,23.50
2023-05-05T15:52:15.995Z,23.40
2023-05-05T15:54:44.860Z,23.20
2023-05-05T15:57:13.524Z,23.30
2023-05-05T15:59:42.454Z,23.40
2023-05-05T16:02:11.813Z,23.10
2023-05-05T16:04:40.633Z,23.20
2023-05-05T16:07:11.390Z,23.10
2023-05-05T16:09:44.563Z,23.20
2023-05-05T16:12:13.814Z,23.00
2023-05-05T16:14:42.782Z,22.80
2023-05-05T16:17:11.803Z,23.00
2023-05-05T16:19:40.714Z,22.90
2023-05-05T16:22:10.944Z,22.80
2023-05-05T16:24:42.492Z,22.80
2023-05-05T16:27:13.795Z,22.70
2023-05-05T16:29:42.866Z,22.60
2023-05-05T16:32:11.859Z,22.70
2023-05-05T16:34:40.997Z,22.60
2023-05-05T16:37:11.322Z,22.80
2023-05-05T16:39:41.582Z,22.80
2023-05-05T16:42:16.688Z,22.70
2023-05-05T16:44:45.352Z,22.80
2023-05-05T16:47:14.205Z,22.90
2023-05-05T16:49:42.859Z,22.70
2023-05-05T16:52:13.028Z,22.70
2023-05-05T16:54:41.676Z,22.60
2023-05-05T16:57:10.461Z,22.70
2023-05-05T16:59:41.857Z,22.60
2023-05-05T17:02:10.736Z,22.60
2023-05-05T17:04:39.437Z,22.50
2023-05-05T17:07:08.124Z,22.50
2023-05-05T17:09:38.320Z,22.50
2023-05-05T17:12:07.858Z,22.40
2023-05-05T17:14:36.455Z,22.40
2023-05-05T17:17:05.159Z,22.40
2023-05-05T17:19:34.041Z,22.40
2023-05-05T17:22:02.771Z,22.40
2023-05-05T17:24:31.697Z,22.40
2023-05-05T17:27:02.132Z,22.40
2023-05-05T17:29:31.311Z,22.40
2023-05-05T17:32:00.917Z,22.40
2023-05-05T17:34:29.938Z,22.30
2023-05-05T17:36:58.624Z,22.20
2023-05-05T17:39:27.735Z,22.20
2023-05-05T17:41:56.444Z,22.10
2023-05-05T17:44:26.695Z,22.20
2023-05-05T17:46:55.560Z,22.10
2023-05-05T17:49:25.485Z,22.00
2023-05-05T17:51:54.430Z,22.00
2023-05-05T17:54:23.214Z,21.90
2023-05-05T17:56:51.891Z,21.80
2023-05-05T17:59:20.582Z,21.80
2023-05-05T18:01:50.722Z,21.70
2023-05-05T18:04:19.589Z,21.60
2023-05-05T18:06:48.377Z,21.70
2023-05-05T18:09:20.783Z,21.60
2023-05-05T18:11:50.037Z,21.60
2023-05-05T18:14:22.541Z,21.50
2023-05-05T18:16:53.473Z,21.50
2023-05-05T18:19:24.699Z,21.40
2023-05-05T18:21:55.534Z,21.30
2023-05-05T18:24:25.996Z,21.10
2023-05-05T18:26:55.584Z,21.20
2023-05-05T18:29:24.644Z,21.20
2023-05-05T18:31:55.238Z,21.20
2023-05-05T18:34:24.306Z,21.20
2023-05-05T18:36:54.494Z,21.10
2023-05-05T18:39:23.326Z,21.10
2023-05-05T18:41:53.070Z,21.00
2023-05-05T18:44:21.674Z,21.00
2023-05-05T18:46:50.349Z,21.10
2023-05-05T18:49:20.632Z,20.90
2023-05-05T18:51:49.479Z,20.70
2023-05-05T18:54:18.194Z,20.60
2023-05-05T18:56:46.974Z,20.60
2023-05-05T18:59:15.723Z,20.60
2023-05-05T19:01:44.837Z,20.50
2023-05-05T19:04:26.666Z,20.60
2023-05-05T19:07:00.342Z,20.40
2023-05-05T19:09:29.271Z,20.30
2023-05-05T19:11:58.052Z,20.30
2023-05-05T19:14:26.842Z,20.30
2023-05-05T19:16:56.263Z,20.30
2023-05-05T19:19:25.083Z,20.30
2023-05-05T19:21:53.826Z,20.20
2023-05-05T19:24:23.920Z,20.00
2023-05-05T19:26:52.566Z,19.90
2023-05-05T19:29:21.305Z,20.00
2023-05-05T19:31:50.025Z,20.10
2023-05-05T19:34:18.794Z,20.00
2023-05-05T19:36:47.515Z,20.00
2023-05-05T19:39:16.894Z,20.10
2023-05-05T19:41:47.096Z,19.90
2023-05-05T19:44:16.493Z,19.80
2023-05-05T19:46:45.217Z,19.90
2023-05-05T19:49:13.856Z,19.70
2023-05-05T19:51:43.838Z,19.70
2023-05-05T19:54:12.528Z,19.70
2023-05-05T19:56:41.204Z,19.70
2023-05-05T19:59:11.323Z,19.70
2023-05-05T20:01:40.244Z,19.60
2023-05-05T20:04:09.109Z,19.60
2023-05-05T20:06:37.923Z,19.60
2023-05-05T20:09:07.044Z,19.50
2023-05-05T20:11:36.337Z,19.50
2023-05-05T20:14:05.049Z,19.60
2023-05-05T20:16:35.784Z,19.50
2023-05-05T20:19:05.406Z,19.50
2023-05-05T20:21:36.078Z,19.40
2023-05-05T20:24:04.978Z,19.30
2023-05-05T20:26:33.779Z,19.40
2023-05-05T20:29:02.553Z,19.30
2023-05-05T20:31:31.357Z,19.30
2023-05-05T20:34:01.615Z,19.20
2023-05-05T20:36:30.342Z,19.00
2023-05-05T20:38:59.030Z,18.90
2023-05-05T20:41:27.710Z,19.00
2023-05-05T20:43:56.442Z,19.10
2023-05-05T20:46:25.149Z,19.10
2023-05-05T20:48:53.846Z,19.00
2023-05-05T20:51:23.999Z,19.00
2023-05-05T20:53:52.698Z,19.00
2023-05-05T20:56:21.391Z,18.80
2023-05-05T20:58:50.231Z,18.70
2023-05-05T21:01:18.979Z,18.80
2023-05-05T21:03:47.758Z,18.80
2023-05-05T21:06:16.427Z,18.80
2023-05-05T21:08:47.267Z,18.80
2023-05-05T21:11:15.927Z,18.70
2023-05-05T21:13:44.655Z,18.60
2023-05-05T21:16:13.526Z,18.60
2023-05-05T21:18:46.646Z,18.60
2023-05-05T21:21:15.461Z,18.60
2023-05-05T21:23:47.968Z,18.50
2023-05-05T21:26:16.925Z,18.50
2023-05-05T21:28:45.596Z,18.30
2023-05-05T21:31:21.836Z,18.30
2023-05-05T21:33:51.223Z,18.40
2023-05-05T21:36:20.995Z,18.30
2023-05-05T21:38:55.354Z,18.30
2023-05-05T21:41:25.398Z,18.30
2023-05-05T21:43:54.158Z,18.20
2023-05-05T21:46:22.889Z,18.20
2023-05-05T21:48:51.947Z,18.10
2023-05-05T21:51:22.654Z,18.10
2023-05-05T21:53:52.809Z,18.10
2023-05-05T21:56:21.450Z,18.00
2023-05-05T21:58:50.154Z,18.10
2023-05-05T22:01:19.038Z,18.20
2023-05-05T22:03:48.395Z,18.20
2023-05-05T22:06:18.482Z,18.10
2023-05-05T22:08:47.761Z,18.20
2023-05-05T22:11:19.469Z,18.00
2023-05-05T22:13:48.282Z,17.90
2023-05-05T22:16:18.402Z,17.80
2023-05-05T22:18:47.346Z,17.80
2023-05-05T22:21:15.987Z,17.80
2023-05-05T22:23:44.669Z,17.80
2023-05-05T22:26:13.784Z,17.60
2023-05-05T22:28:43.905Z,17.40
2023-05-05T22:31:12.794Z,17.50
2023-05-05T22:33:41.481Z,17.40
2023-05-05T22:36:11.612Z,17.20
2023-05-05T22:38:40.336Z,17.20
2023-05-05T22:41:09.033Z,17.10
2023-05-05T22:43:37.794Z,17.30
2023-05-05T22:46:08.011Z,17.40
2023-05-05T22:48:36.989Z,17.50
2023-05-05T22:51:05.811Z,17.40
2023-05-05T22:53:34.536Z,17.40
2023-05-05T22:56:03.248Z,17.40
2023-05-05T22:58:31.908Z,17.20
2023-05-05T23:01:00.592Z,17.00
2023-05-05T23:03:30.719Z,17.20
2023-05-05T23:05:59.330Z,17.00
2023-05-05T23:08:28.091Z,17.00
2023-05-05T23:10:57.261Z,16.90
2023-05-05T23:13:25.970Z,16.90
2023-05-05T23:15:54.720Z,17.00
2023-05-05T23:18:23.385Z,17.10
2023-05-05T23:20:53.379Z,17.10
2023-05-05T23:23:22.107Z,17.10
2023-05-05T23:25:51.411Z,16.90
2023-05-05T23:28:21.076Z,16.70
2023-05-05T23:30:49.879Z,16.60
2023-05-05T23:33:18.572Z,16.70
2023-05-05T23:35:47.957Z,16.70
2023-05-05T23:38:18.060Z,16.60
2023-05-05T23:40:46.726Z,16.50
2023-05-05T23:43:15.537Z,16.60
2023-05-05T23:45:44.226Z,16.60
2023-05-05T23:48:13.776Z,16.40
2023-05-05T23:50:42.416Z,16.40
2023-05-05T23:53:11.347Z,16.20
2023-05-05T23:55:41.503Z,16.20
2023-05-05T23:58:10.135Z,16.20
